Карточка аэропорта URSS

Внимание!
Информация на этой странице в стадии наполнения.
Если вы не увидели какой-то информации, или заметили неточность - пожалуйста сообщите нам!
Спасибо!
Команда RU-STAFF
Название аэропортаСочи
Название аэропорта (англ.)Sochi
Превышение89 ft. (27.1 m.)
Координаты43°26.634', 39°56.55'
Высота перехода13000 ft
Эшелон переходаQNH>=977hPa: FL150; QNH<977hPa: FL160
Коды ответчика1060-1077
Зона ОрВДРостов-на-Дону РПИ (URRV)
Данные METARURSS 241300Z 29004MPS 9999 FEW050CB 27/11 Q1008 WS ALL RWY R02/010070 R06/010070 NOSIG RMK R06/31004MPS QFE754
Проноз погоды (TAF)URSS 241055Z 2412/2512 26005G10MPS 9999 FEW040CB SCT100 TEMPO 2412/2415 VRB07G12MPS -TSRA BECMG 2415/2416 05004G09MPS SCT040CB OVC100 TEMPO 2416/2506 VRB08G13MPS -TSRA SQ SCT016 BKN030CB OVC100 FM250600 26004G09MPS 9999 SCT040CB BKN100 TEMPO 2506/2509 -TSRA BECMG 2509/2510 28005G10MPS
NOTAMshow/hide NOTAM
AWOS   TABLE

Информация о ВПП

ВПП Длина ВПП (м.) Покрытие Курс ВПП Частота ILS
022500Цементобетон22110.5
062890Цементобетон58111.1
202500Цементобетон202 
242890Цементобетон238 

Диспетчерские позиции

Позывной Наименование органа УВД Частота
URSSFM1119.000
URSS_APPСочи-Подход124.600
URSS_DELСочи-Деливери132.700
URSS_GNDСочи-Руление119.000
URSS_R_APPСочи-Круг119.700
URSS_TWRСочи-Старт121.200



Спутниковое изображение